Aviation Digital Data Service (ADDS)

Output produced by METARs form (0509 UTC 28 August 2016)
found at http://aviationweather.gov/adds/metars/
 
KROA 272329Z 2800/2824 VRB03KT P6SM FEW040 
     FM281400 09004KT P6SM FEW250